Time;durP1;ratioP1;P1;durP2;ratioP2;P2;SDS_P1;SDS_P2;PMS_P1;PMS_P2;Temp;Humidity;BMP_temperature;BMP_pressure;BME280_temperature;BME280_humidity;BME280_pressure;Samples;Min_cycle;Max_cycle;Signal;HPM_P1;HPM_P2
2022/09/20 00:02:15;;;;;;;3.07;2.40;;;;;;;;;;4972133;28;20185;-77
2022/09/20 00:04:40;;;;;;;5.27;2.07;;;;;;;;;;4964106;28;20273;-77
2022/09/20 00:07:05;;;;;;;4.53;1.87;;;;;;;;;;4962396;28;20188;-77
2022/09/20 00:12:15;;;;;;;5.17;1.93;;;;;;;;;;4969542;28;20197;-77
2022/09/20 00:14:40;;;;;;;3.57;1.90;;;;;;;;;;4971348;28;20185;-77
2022/09/20 00:17:05;;;;;;;4.17;2.07;;;;;;;;;;5000263;28;20342;-77
2022/09/20 00:19:30;;;;;;;2.20;1.90;;;;;;;;;;4973094;28;20179;-77
2022/09/20 00:21:56;;;;;;;2.53;1.80;;;;;;;;;;4974271;28;20181;-77
2022/09/20 00:24:21;;;;;;;3.80;2.00;;;;;;;;;;4968437;28;20173;-76
2022/09/20 00:26:46;;;;;;;3.33;2.17;;;;;;;;;;4970693;28;20188;-77
2022/09/20 00:29:12;;;;;;;3.60;2.57;;;;;;;;;;4973071;28;20187;-77
2022/09/20 00:31:39;;;;;;;4.43;1.60;;;;;;;;;;5006210;28;20178;-77
2022/09/20 00:36:48;;;;;;;5.10;1.70;;;;;;;;;;4986983;28;20182;-77
2022/09/20 00:39:14;;;;;;;4.50;1.87;;;;;;;;;;4976376;28;20182;-76
2022/09/20 00:41:39;;;;;;;4.47;2.50;;;;;;;;;;4970985;28;20226;-77
2022/09/20 00:44:23;;;;;;;4.17;2.07;;;;;;;;;;4972080;28;20182;-77
2022/09/20 00:46:48;;;;;;;3.97;2.07;;;;;;;;;;4973048;28;20185;-77
2022/09/20 00:49:15;;;;;;;5.37;2.13;;;;;;;;;;4978275;28;20170;-77
2022/09/20 00:51:43;;;;;;;2.60;1.90;;;;;;;;;;5000106;28;20215;-77
2022/09/20 00:54:09;;;;;;;5.37;2.10;;;;;;;;;;4969571;28;20182;-77
2022/09/20 00:56:36;;;;;;;4.50;2.17;;;;;;;;;;4997329;28;20174;-77
2022/09/20 00:59:24;;;;;;;3.90;2.00;;;;;;;;;;4972411;28;20214;-77
2022/09/20 01:01:51;;;;;;;4.10;2.10;;;;;;;;;;4996385;28;20177;-77
2022/09/20 01:04:20;;;;;;;4.23;1.83;;;;;;;;;;4968279;28;20191;-77
2022/09/20 01:06:45;;;;;;;5.17;1.70;;;;;;;;;;4969679;28;20184;-76
2022/09/20 01:09:10;;;;;;;4.33;2.30;;;;;;;;;;4990198;28;20188;-77
2022/09/20 01:11:36;;;;;;;4.87;2.57;;;;;;;;;;4965324;28;20242;-76
2022/09/20 01:14:01;;;;;;;3.33;2.33;;;;;;;;;;4968037;28;20322;-76
2022/09/20 01:16:28;;;;;;;4.63;2.20;;;;;;;;;;4966814;28;20246;-76
2022/09/20 01:18:55;;;;;;;4.57;2.23;;;;;;;;;;4969921;28;20210;-77
2022/09/20 01:21:21;;;;;;;3.13;2.03;;;;;;;;;;4975252;28;20609;-76
2022/09/20 01:24:04;;;;;;;6.37;2.20;;;;;;;;;;4972649;28;20173;-76
2022/09/20 01:26:52;;;;;;;2.77;1.93;;;;;;;;;;4966294;28;20204;-76
2022/09/20 01:29:34;;;;;;;3.67;2.30;;;;;;;;;;4961460;28;20184;-76
2022/09/20 01:32:00;;;;;;;2.53;2.00;;;;;;;;;;4963260;28;20235;-76
2022/09/20 01:34:36;;;;;;;6.60;2.90;;;;;;;;;;4960518;28;20269;-77
2022/09/20 01:37:04;;;;;;;3.20;2.07;;;;;;;;;;4966511;28;20192;-77
2022/09/20 01:40:01;;;;;;;6.63;2.37;;;;;;;;;;5096887;27;20643;-78
2022/09/20 01:42:31;;;;;;;4.00;2.43;;;;;;;;;;5082393;28;20186;-77
2022/09/20 01:44:59;;;;;;;4.30;2.13;;;;;;;;;;5066484;28;20211;-77
2022/09/20 01:47:43;;;;;;;6.07;2.30;;;;;;;;;;5085053;28;20169;-78
2022/09/20 01:50:21;;;;;;;4.23;2.20;;;;;;;;;;5081801;28;20182;-78
2022/09/20 01:52:50;;;;;;;5.07;2.37;;;;;;;;;;5065626;28;20216;-78
2022/09/20 01:55:18;;;;;;;7.20;2.40;;;;;;;;;;5083077;28;20177;-77
2022/09/20 01:57:43;;;;;;;5.63;3.00;;;;;;;;;;5065350;28;20203;-77
2022/09/20 02:00:11;;;;;;;4.77;2.37;;;;;;;;;;5069100;28;20269;-78
2022/09/20 02:02:51;;;;;;;3.40;2.30;;;;;;;;;;5067972;28;20178;-77
2022/09/20 02:05:16;;;;;;;5.20;2.40;;;;;;;;;;5085103;28;20226;-77
2022/09/20 02:07:48;;;;;;;3.97;2.10;;;;;;;;;;5080893;28;20183;-78
2022/09/20 02:10:13;;;;;;;5.67;2.00;;;;;;;;;;5095661;28;20248;-77
2022/09/20 02:12:48;;;;;;;3.57;2.20;;;;;;;;;;5083847;28;20243;-77
2022/09/20 02:15:13;;;;;;;5.80;3.13;;;;;;;;;;5081615;28;20278;-77
2022/09/20 02:17:56;;;;;;;5.47;2.60;;;;;;;;;;5081215;28;22038;-78
2022/09/20 02:20:22;;;;;;;8.03;2.70;;;;;;;;;;5084783;28;20206;-77
2022/09/20 02:22:56;;;;;;;3.57;2.20;;;;;;;;;;5080558;28;20226;-77
2022/09/20 02:25:21;;;;;;;4.33;3.17;;;;;;;;;;5082217;28;20188;-78
2022/09/20 02:27:55;;;;;;;7.27;2.50;;;;;;;;;;5085135;28;20179;-77
2022/09/20 02:30:39;;;;;;;7.37;2.67;;;;;;;;;;5097439;28;20231;-78
2022/09/20 02:33:10;;;;;;;5.37;2.77;;;;;;;;;;5084621;28;20238;-77
2022/09/20 02:35:50;;;;;;;3.23;2.23;;;;;;;;;;5075583;28;20214;-78
2022/09/20 02:38:15;;;;;;;7.03;2.57;;;;;;;;;;5076548;28;20231;-78
2022/09/20 02:41:02;;;;;;;3.73;2.27;;;;;;;;;;5083582;28;20187;-78
2022/09/20 02:43:47;;;;;;;6.90;2.70;;;;;;;;;;5080672;28;20207;-77
2022/09/20 02:46:15;;;;;;;5.37;2.07;;;;;;;;;;5076237;28;20191;-78
2022/09/20 02:48:55;;;;;;;6.30;2.60;;;;;;;;;;5075060;28;20255;-77
2022/09/20 02:51:24;;;;;;;3.57;2.70;;;;;;;;;;5065068;28;20177;-78
2022/09/20 02:53:52;;;;;;;4.77;2.50;;;;;;;;;;5066881;28;20234;-77
2022/09/20 02:56:26;;;;;;;7.53;2.60;;;;;;;;;;5069049;28;20192;-77
2022/09/20 02:58:58;;;;;;;7.03;2.23;;;;;;;;;;5062719;28;20209;-77
2022/09/20 03:01:23;;;;;;;2.73;2.10;;;;;;;;;;5083169;28;20239;-77
2022/09/20 03:03:51;;;;;;;3.83;2.00;;;;;;;;;;5065964;28;20225;-78
2022/09/20 03:06:24;;;;;;;6.00;2.60;;;;;;;;;;5069301;28;20197;-77
2022/09/20 03:09:09;;;;;;;4.30;2.30;;;;;;;;;;5071241;28;20182;-78
2022/09/20 03:11:43;;;;;;;5.97;2.50;;;;;;;;;;5069272;28;20208;-77
2022/09/20 03:14:17;;;;;;;3.37;2.23;;;;;;;;;;5067402;28;20276;-78
2022/09/20 03:16:55;;;;;;;4.63;2.30;;;;;;;;;;5061640;28;20189;-78
2022/09/20 03:19:23;;;;;;;4.50;2.43;;;;;;;;;;5077781;28;20201;-78
2022/09/20 03:22:07;;;;;;;2.80;2.20;;;;;;;;;;5068566;28;20211;-78
2022/09/20 03:24:51;;;;;;;9.03;2.90;;;;;;;;;;5058799;28;20184;-78
2022/09/20 03:27:30;;;;;;;3.40;2.70;;;;;;;;;;5062990;28;20225;-78
2022/09/20 03:29:58;;;;;;;4.10;2.20;;;;;;;;;;5067647;28;20179;-77
2022/09/20 03:32:32;;;;;;;8.63;2.70;;;;;;;;;;5065791;28;20182;-78
2022/09/20 03:35:07;;;;;;;6.40;2.60;;;;;;;;;;5059906;28;20187;-78
2022/09/20 03:37:44;;;;;;;3.33;2.57;;;;;;;;;;5061410;28;20351;-77
2022/09/20 03:40:28;;;;;;;4.57;2.37;;;;;;;;;;5059750;28;20178;-77
2022/09/20 03:42:53;;;;;;;8.23;2.67;;;;;;;;;;5084716;28;20171;-78
2022/09/20 03:45:40;;;;;;;6.53;2.97;;;;;;;;;;5057999;28;20180;-77
2022/09/20 03:48:29;;;;;;;2.97;2.03;;;;;;;;;;5063363;28;20261;-77
2022/09/20 03:51:00;;;;;;;6.40;2.60;;;;;;;;;;5048724;28;20282;-77
2022/09/20 03:53:32;;;;;;;5.47;2.73;;;;;;;;;;5064626;28;20195;-77
2022/09/20 03:56:00;;;;;;;5.13;3.00;;;;;;;;;;5066196;28;20198;-77
2022/09/20 03:58:28;;;;;;;6.47;2.50;;;;;;;;;;5064101;28;20198;-77
2022/09/20 04:00:53;;;;;;;3.60;2.40;;;;;;;;;;5064199;28;20198;-77
2022/09/20 04:03:21;;;;;;;3.40;2.42;;;;;;;;;;5064139;28;20175;-77
2022/09/20 04:06:05;;;;;;;5.93;2.87;;;;;;;;;;5056467;28;20208;-77
2022/09/20 04:08:49;;;;;;;3.77;2.80;;;;;;;;;;5062336;28;20177;-77
2022/09/20 04:11:24;;;;;;;5.60;3.43;;;;;;;;;;5064733;28;20178;-77
2022/09/20 04:13:53;;;;;;;4.30;3.23;;;;;;;;;;5064393;28;20182;-78
2022/09/20 04:16:22;;;;;;;6.30;3.10;;;;;;;;;;5085084;28;20498;-77
2022/09/20 04:18:47;;;;;;;3.23;2.90;;;;;;;;;;5063127;28;20203;-77
2022/09/20 04:21:13;;;;;;;4.00;3.50;;;;;;;;;;5068859;28;20180;-77
2022/09/20 04:23:38;;;;;;;5.50;2.90;;;;;;;;;;5067128;28;20181;-77
2022/09/20 04:26:03;;;;;;;6.37;3.13;;;;;;;;;;5058686;28;20185;-78
2022/09/20 04:28:35;;;;;;;3.50;2.70;;;;;;;;;;5069155;28;20169;-77
2022/09/20 04:31:04;;;;;;;8.00;3.20;;;;;;;;;;5064601;28;20188;-78
2022/09/20 04:33:33;;;;;;;5.53;3.27;;;;;;;;;;5071039;28;20191;-77
2022/09/20 04:36:28;;;;;;;4.57;2.87;;;;;;;;;;5063000;28;20183;-77
2022/09/20 04:39:14;;;;;;;8.03;4.93;;;;;;;;;;5068558;28;20229;-77
2022/09/20 04:41:58;;;;;;;6.97;4.27;;;;;;;;;;5049004;28;20195;-77
2022/09/20 04:44:26;;;;;;;8.03;4.93;;;;;;;;;;5066436;28;20207;-77
2022/09/20 04:47:10;;;;;;;4.20;3.47;;;;;;;;;;5067579;28;20171;-77
2022/09/20 04:49:55;;;;;;;11.47;5.13;;;;;;;;;;5063420;28;20192;-77
2022/09/20 04:52:39;;;;;;;5.63;5.13;;;;;;;;;;5062836;28;20193;-77
2022/09/20 04:55:07;;;;;;;7.23;4.53;;;;;;;;;;5062517;28;20279;-77
2022/09/20 04:57:52;;;;;;;8.73;6.30;;;;;;;;;;5059479;28;20198;-77
2022/09/20 05:00:19;;;;;;;7.10;5.47;;;;;;;;;;5064897;28;20182;-78
2022/09/20 05:03:10;;;;;;;9.03;4.70;;;;;;;;;;5060570;28;20259;-77
2022/09/20 05:05:51;;;;;;;5.47;4.40;;;;;;;;;;5064383;28;20192;-78
2022/09/20 05:08:25;;;;;;;4.40;3.90;;;;;;;;;;5063169;28;20192;-77
2022/09/20 05:10:53;;;;;;;9.57;7.57;;;;;;;;;;5061575;28;20190;-77
2022/09/20 05:13:25;;;;;;;8.47;4.73;;;;;;;;;;5065290;28;20179;-77
2022/09/20 05:15:57;;;;;;;8.10;5.10;;;;;;;;;;5058733;28;20179;-75
2022/09/20 05:18:22;;;;;;;8.87;6.00;;;;;;;;;;5066286;28;20204;-72
2022/09/20 05:21:08;;;;;;;9.23;5.90;;;;;;;;;;5061798;28;20215;-72
2022/09/20 05:23:43;;;;;;;8.60;4.03;;;;;;;;;;5061962;28;20184;-72
2022/09/20 05:26:12;;;;;;;8.63;4.70;;;;;;;;;;5063123;28;20183;-72
2022/09/20 05:28:56;;;;;;;10.67;9.60;;;;;;;;;;5061527;28;20177;-72
2022/09/20 05:31:25;;;;;;;6.17;5.57;;;;;;;;;;5067863;28;20530;-72
2022/09/20 05:33:55;;;;;;;9.13;5.70;;;;;;;;;;5065772;28;20203;-72
2022/09/20 05:36:42;;;;;;;9.30;7.30;;;;;;;;;;5067628;28;20218;-72
2022/09/20 05:39:15;;;;;;;6.83;4.70;;;;;;;;;;5067896;28;20218;-72
2022/09/20 05:41:53;;;;;;;6.57;4.87;;;;;;;;;;5075335;28;20211;-72
2022/09/20 05:44:18;;;;;;;7.63;5.17;;;;;;;;;;5062322;28;20180;-72
2022/09/20 05:46:50;;;;;;;6.00;4.57;;;;;;;;;;5070330;28;20265;-72
2022/09/20 05:49:21;;;;;;;9.20;5.27;;;;;;;;;;5063854;28;20178;-72
2022/09/20 05:51:52;;;;;;;9.70;5.27;;;;;;;;;;5071313;28;20184;-72
2022/09/20 05:54:21;;;;;;;8.30;5.70;;;;;;;;;;5065499;28;20187;-72
2022/09/20 05:57:10;;;;;;;9.90;5.10;;;;;;;;;;5072963;28;20183;-72
2022/09/20 05:59:50;;;;;;;10.23;5.17;;;;;;;;;;5056550;28;20216;-72
2022/09/20 06:02:29;;;;;;;10.50;4.90;;;;;;;;;;5070188;28;20197;-72
2022/09/20 06:05:03;;;;;;;9.63;5.00;;;;;;;;;;5070063;28;20236;-72
2022/09/20 06:07:41;;;;;;;7.33;4.87;;;;;;;;;;5073761;28;20179;-72
2022/09/20 06:10:07;;;;;;;10.93;4.43;;;;;;;;;;5069391;28;20175;-72
2022/09/20 06:12:47;;;;;;;9.90;4.87;;;;;;;;;;5064904;28;20180;-72
2022/09/20 06:15:23;;;;;;;5.57;4.93;;;;;;;;;;5063942;28;20178;-72
2022/09/20 06:17:55;;;;;;;7.97;5.97;;;;;;;;;;5067121;28;20229;-72
2022/09/20 06:20:36;;;;;;;7.60;6.83;;;;;;;;;;5059635;28;20188;-72
2022/09/20 06:23:03;;;;;;;13.00;5.17;;;;;;;;;;5064511;28;20232;-72
2022/09/20 06:25:31;;;;;;;7.57;5.03;;;;;;;;;;5066484;28;20414;-72
2022/09/20 06:28:05;;;;;;;11.70;5.80;;;;;;;;;;5067835;28;20265;-72
2022/09/20 06:30:36;;;;;;;9.00;5.00;;;;;;;;;;5068167;28;20218;-72
2022/09/20 06:33:14;;;;;;;10.40;5.63;;;;;;;;;;5064989;28;20206;-73
2022/09/20 06:35:55;;;;;;;6.87;6.07;;;;;;;;;;5066699;28;20255;-72
2022/09/20 06:41:29;;;;;;;8.13;4.50;;;;;;;;;;5071036;28;20204;-72
2022/09/20 06:43:59;;;;;;;9.17;5.80;;;;;;;;;;5070234;28;20343;-72
2022/09/20 06:46:25;;;;;;;7.57;6.30;;;;;;;;;;5068688;28;20179;-72
2022/09/20 06:48:51;;;;;;;12.77;6.10;;;;;;;;;;5062514;28;20183;-72
2022/09/20 06:51:16;;;;;;;8.53;4.40;;;;;;;;;;5072332;28;20191;-72
2022/09/20 06:53:41;;;;;;;9.77;3.43;;;;;;;;;;5076909;28;20184;-72
2022/09/20 06:56:08;;;;;;;8.33;2.97;;;;;;;;;;5088022;28;20187;-72
2022/09/20 06:58:33;;;;;;;5.13;2.97;;;;;;;;;;5066215;28;20223;-72
2022/09/20 07:00:58;;;;;;;5.03;2.70;;;;;;;;;;5061007;28;20361;-72
2022/09/20 07:03:23;;;;;;;6.53;3.67;;;;;;;;;;5065821;28;20187;-72
2022/09/20 07:05:49;;;;;;;7.27;3.00;;;;;;;;;;5066493;28;20247;-72
2022/09/20 07:08:14;;;;;;;9.97;3.43;;;;;;;;;;5067684;28;20223;-72
2022/09/20 07:10:42;;;;;;;3.23;1.87;;;;;;;;;;5079738;28;20237;-72
2022/09/20 07:13:10;;;;;;;6.07;2.20;;;;;;;;;;5067380;28;20180;-72
2022/09/20 07:15:35;;;;;;;6.00;2.60;;;;;;;;;;5065903;28;20237;-72
2022/09/20 07:18:00;;;;;;;5.07;2.37;;;;;;;;;;5069405;28;20327;-72
2022/09/20 07:20:25;;;;;;;6.33;3.10;;;;;;;;;;5067537;28;20472;-72
2022/09/20 07:22:52;;;;;;;8.27;2.90;;;;;;;;;;5064783;28;20184;-72
2022/09/20 07:25:17;;;;;;;6.00;2.30;;;;;;;;;;5063369;28;20187;-72
2022/09/20 07:27:45;;;;;;;4.70;2.90;;;;;;;;;;5086352;28;20175;-72
2022/09/20 07:30:11;;;;;;;4.03;2.33;;;;;;;;;;5070738;28;20172;-72
2022/09/20 07:32:36;;;;;;;3.73;1.93;;;;;;;;;;5067049;28;20180;-72
2022/09/20 07:35:02;;;;;;;5.10;2.13;;;;;;;;;;5066449;28;20199;-72
2022/09/20 07:37:27;;;;;;;7.67;1.90;;;;;;;;;;5064487;28;20173;-72
2022/09/20 07:39:52;;;;;;;5.90;2.30;;;;;;;;;;5074464;28;20231;-72
2022/09/20 07:42:17;;;;;;;4.93;2.27;;;;;;;;;;5062116;28;20171;-72
2022/09/20 07:44:43;;;;;;;4.77;1.83;;;;;;;;;;5065491;28;20176;-72
2022/09/20 07:47:13;;;;;;;7.10;2.10;;;;;;;;;;5061904;28;20180;-72
2022/09/20 07:49:39;;;;;;;8.37;2.10;;;;;;;;;;5062819;28;20184;-72
2022/09/20 07:52:04;;;;;;;5.73;2.83;;;;;;;;;;5065417;28;20277;-72
2022/09/20 07:54:29;;;;;;;7.67;2.63;;;;;;;;;;5069272;28;20233;-72
2022/09/20 07:56:55;;;;;;;5.80;2.13;;;;;;;;;;5064164;28;20208;-72
2022/09/20 07:59:20;;;;;;;14.80;3.17;;;;;;;;;;5070512;28;20211;-72
2022/09/20 08:01:45;;;;;;;7.07;2.67;;;;;;;;;;5067069;28;20172;-72
2022/09/20 08:04:11;;;;;;;11.80;2.83;;;;;;;;;;5063538;28;20172;-73
2022/09/20 08:06:37;;;;;;;7.53;2.60;;;;;;;;;;5068167;28;20196;-72
2022/09/20 08:09:03;;;;;;;13.03;3.27;;;;;;;;;;5075593;28;20185;-72
2022/09/20 08:11:29;;;;;;;5.03;2.20;;;;;;;;;;5060069;28;20180;-76
2022/09/20 08:13:55;;;;;;;3.63;2.00;;;;;;;;;;5064477;28;20185;-72
2022/09/20 08:16:21;;;;;;;8.13;2.37;;;;;;;;;;5075367;28;20182;-72
2022/09/20 08:18:47;;;;;;;3.30;2.03;;;;;;;;;;5071054;28;20208;-72
2022/09/20 08:21:13;;;;;;;4.87;1.83;;;;;;;;;;5071475;28;20186;-72
2022/09/20 08:23:39;;;;;;;3.57;2.23;;;;;;;;;;5064464;28;20186;-72
2022/09/20 08:26:05;;;;;;;5.43;2.03;;;;;;;;;;5064793;28;20181;-72
2022/09/20 08:28:31;;;;;;;5.77;2.40;;;;;;;;;;5065435;28;20191;-72
2022/09/20 08:31:04;;;;;;;3.97;1.60;;;;;;;;;;5075702;28;20177;-72
2022/09/20 08:33:29;;;;;;;3.03;1.70;;;;;;;;;;5062860;28;20182;-72
2022/09/20 08:35:55;;;;;;;3.80;1.80;;;;;;;;;;5064196;28;20180;-72
2022/09/20 08:38:25;;;;;;;5.73;1.87;;;;;;;;;;5074304;28;20245;-72
2022/09/20 08:40:51;;;;;;;2.37;1.43;;;;;;;;;;5060469;28;20185;-72
2022/09/20 08:43:16;;;;;;;5.67;1.50;;;;;;;;;;5059270;28;20180;-72
2022/09/20 08:45:42;;;;;;;3.87;1.83;;;;;;;;;;5068688;28;20181;-72
2022/09/20 08:48:11;;;;;;;5.53;1.53;;;;;;;;;;5065143;28;20174;-72
2022/09/20 08:50:36;;;;;;;6.17;1.90;;;;;;;;;;5073455;28;20178;-72
2022/09/20 08:53:05;;;;;;;5.43;1.90;;;;;;;;;;5072403;28;20180;-72
2022/09/20 08:55:31;;;;;;;4.63;1.60;;;;;;;;;;5063738;28;20173;-72
2022/09/20 08:57:57;;;;;;;1.93;1.50;;;;;;;;;;5069982;28;20197;-72
2022/09/20 09:00:25;;;;;;;6.50;1.67;;;;;;;;;;5062339;28;20175;-72
2022/09/20 09:02:54;;;;;;;9.00;2.30;;;;;;;;;;5061796;28;20171;-72
2022/09/20 09:05:39;;;;;;;7.80;2.00;;;;;;;;;;5062494;28;20204;-72
2022/09/20 09:08:15;;;;;;;4.60;1.50;;;;;;;;;;5053885;28;20185;-72
2022/09/20 09:10:42;;;;;;;3.37;1.40;;;;;;;;;;5061986;28;20173;-72
2022/09/20 09:13:13;;;;;;;8.83;2.03;;;;;;;;;;5062342;28;20204;-72
2022/09/20 09:15:40;;;;;;;4.67;1.50;;;;;;;;;;5059238;28;20469;-72
2022/09/20 09:18:10;;;;;;;3.80;2.40;;;;;;;;;;5067685;28;20233;-72
2022/09/20 09:20:45;;;;;;;5.13;2.30;;;;;;;;;;5062947;28;20177;-72
2022/09/20 09:23:20;;;;;;;4.87;1.50;;;;;;;;;;5070268;28;20173;-72
2022/09/20 09:25:45;;;;;;;5.50;1.60;;;;;;;;;;5058435;28;20178;-72
2022/09/20 09:28:14;;;;;;;8.77;1.37;;;;;;;;;;5062905;28;20201;-73
2022/09/20 09:30:40;;;;;;;6.23;1.93;;;;;;;;;;5065498;28;20205;-72
2022/09/20 09:33:16;;;;;;;2.63;1.50;;;;;;;;;;5063722;28;20190;-73
2022/09/20 09:35:42;;;;;;;4.00;1.70;;;;;;;;;;5063616;28;20178;-72
2022/09/20 09:38:16;;;;;;;6.70;1.83;;;;;;;;;;5066811;28;20229;-72
2022/09/20 09:40:48;;;;;;;3.67;1.57;;;;;;;;;;5060371;28;20174;-72
2022/09/20 09:43:19;;;;;;;2.77;1.70;;;;;;;;;;5060316;28;20242;-73
2022/09/20 09:45:44;;;;;;;5.17;2.00;;;;;;;;;;5062660;28;20190;-73
2022/09/20 09:48:21;;;;;;;3.60;1.63;;;;;;;;;;5069332;28;20180;-73
2022/09/20 09:50:47;;;;;;;6.23;1.77;;;;;;;;;;5079017;28;20230;-73
2022/09/20 09:53:14;;;;;;;3.83;1.93;;;;;;;;;;5069187;28;20179;-72
2022/09/20 09:55:47;;;;;;;3.03;1.80;;;;;;;;;;5069226;28;20192;-72
2022/09/20 09:58:22;;;;;;;2.83;1.70;;;;;;;;;;5068265;28;20210;-72
2022/09/20 10:00:47;;;;;;;3.30;1.57;;;;;;;;;;5070292;28;20181;-72
2022/09/20 10:03:25;;;;;;;2.83;1.80;;;;;;;;;;5071211;28;20170;-72
2022/09/20 10:05:53;;;;;;;2.77;1.30;;;;;;;;;;5067618;28;20204;-72
2022/09/20 10:08:27;;;;;;;2.97;1.40;;;;;;;;;;5073975;28;20184;-72
2022/09/20 10:11:03;;;;;;;1.97;0.83;;;;;;;;;;5066702;28;20181;-72
2022/09/20 10:13:46;;;;;;;3.30;1.37;;;;;;;;;;5071122;28;20183;-73
2022/09/20 10:16:30;;;;;;;1.83;1.33;;;;;;;;;;5065128;28;20184;-73
2022/09/20 10:19:14;;;;;;;2.63;1.10;;;;;;;;;;5069134;28;20208;-73
2022/09/20 10:21:47;;;;;;;1.97;1.57;;;;;;;;;;5066837;28;20184;-72
2022/09/20 10:24:29;;;;;;;1.47;0.97;;;;;;;;;;5068665;28;20182;-73
2022/09/20 10:27:13;;;;;;;3.87;1.80;;;;;;;;;;5068022;28;20174;-73
2022/09/20 10:29:56;;;;;;;5.13;1.53;;;;;;;;;;5066274;28;20181;-73
2022/09/20 10:32:33;;;;;;;2.67;1.17;;;;;;;;;;5060220;28;20240;-72
2022/09/20 10:35:17;;;;;;;4.10;1.50;;;;;;;;;;5070964;28;20188;-73
2022/09/20 10:37:45;;;;;;;2.97;1.30;;;;;;;;;;5077862;28;20192;-73
2022/09/20 10:40:13;;;;;;;3.50;1.13;;;;;;;;;;5065557;28;20180;-73
2022/09/20 10:45:35;;;;;;;14.20;2.73;;;;;;;;;;5072814;28;20203;-73
2022/09/20 10:48:01;;;;;;;4.97;1.50;;;;;;;;;;5066334;28;20201;-73
2022/09/20 10:50:32;;;;;;;3.03;1.47;;;;;;;;;;5065763;28;20227;-73
2022/09/20 10:53:09;;;;;;;1.77;1.07;;;;;;;;;;5067808;28;20189;-73
2022/09/20 10:55:35;;;;;;;6.60;1.57;;;;;;;;;;5058273;28;20188;-73
2022/09/20 10:58:03;;;;;;;5.97;1.37;;;;;;;;;;5068448;28;20193;-73
2022/09/20 11:00:34;;;;;;;3.77;1.40;;;;;;;;;;5061870;28;20193;-73
2022/09/20 11:03:14;;;;;;;4.03;1.70;;;;;;;;;;5063678;28;20216;-73
2022/09/20 11:05:52;;;;;;;6.73;2.20;;;;;;;;;;5066128;28;20262;-73
2022/09/20 11:08:25;;;;;;;2.83;1.50;;;;;;;;;;5061101;28;20178;-73
2022/09/20 11:10:55;;;;;;;5.73;1.47;;;;;;;;;;5064563;28;20177;-73
2022/09/20 11:13:26;;;;;;;5.90;1.60;;;;;;;;;;5067708;28;20181;-73
2022/09/20 11:16:04;;;;;;;4.77;1.90;;;;;;;;;;5069092;28;20180;-73
2022/09/20 11:18:37;;;;;;;7.60;1.60;;;;;;;;;;5069265;28;20181;-73
2022/09/20 11:21:07;;;;;;;1.47;1.37;;;;;;;;;;5075210;28;20178;-73
2022/09/20 11:23:42;;;;;;;2.73;1.50;;;;;;;;;;5067094;28;20178;-73
2022/09/20 11:26:10;;;;;;;4.17;1.53;;;;;;;;;;5067392;28;20178;-73
2022/09/20 11:28:41;;;;;;;3.37;1.53;;;;;;;;;;5067005;28;20182;-73
2022/09/20 11:31:09;;;;;;;5.23;1.50;;;;;;;;;;5070793;28;20175;-73
2022/09/20 11:33:37;;;;;;;2.83;1.27;;;;;;;;;;5064345;28;20190;-73
2022/09/20 11:36:04;;;;;;;3.77;1.30;;;;;;;;;;5071245;28;20182;-73
2022/09/20 11:38:47;;;;;;;2.93;1.33;;;;;;;;;;5062684;28;20230;-73
2022/09/20 11:41:16;;;;;;;5.43;1.77;;;;;;;;;;5065601;28;20182;-73
2022/09/20 11:43:43;;;;;;;2.23;1.30;;;;;;;;;;5069279;28;20176;-73
2022/09/20 11:46:11;;;;;;;3.20;1.77;;;;;;;;;;5067350;28;20194;-73
2022/09/20 11:48:36;;;;;;;3.67;1.40;;;;;;;;;;5076463;28;20268;-73
2022/09/20 11:51:07;;;;;;;2.70;1.67;;;;;;;;;;5074584;28;20243;-73
2022/09/20 11:53:41;;;;;;;5.03;2.07;;;;;;;;;;5065108;28;20175;-73
2022/09/20 11:56:10;;;;;;;4.47;2.00;;;;;;;;;;5064048;28;20210;-73
2022/09/20 11:58:58;;;;;;;5.40;1.70;;;;;;;;;;5069843;28;20205;-73
2022/09/20 12:01:28;;;;;;;5.37;1.93;;;;;;;;;;5051503;28;20198;-73
2022/09/20 12:03:58;;;;;;;4.10;1.60;;;;;;;;;;5064941;28;20179;-73
2022/09/20 12:06:26;;;;;;;2.13;1.40;;;;;;;;;;5066170;28;20207;-73
2022/09/20 12:08:52;;;;;;;4.63;1.40;;;;;;;;;;5066509;28;20185;-73
2022/09/20 12:11:26;;;;;;;7.13;1.70;;;;;;;;;;5066234;28;20194;-73
2022/09/20 12:13:53;;;;;;;2.70;1.40;;;;;;;;;;5065233;28;20183;-73
2022/09/20 12:16:35;;;;;;;1.73;1.37;;;;;;;;;;5065518;28;20187;-73
2022/09/20 12:19:02;;;;;;;2.07;1.40;;;;;;;;;;5073249;28;20211;-73
2022/09/20 12:21:28;;;;;;;5.07;1.90;;;;;;;;;;5069037;28;20180;-73
2022/09/20 12:23:56;;;;;;;3.97;1.70;;;;;;;;;;5063440;28;20243;-73
2022/09/20 12:26:21;;;;;;;1.43;1.20;;;;;;;;;;5066410;28;20181;-73
2022/09/20 12:28:49;;;;;;;6.10;1.90;;;;;;;;;;5067905;28;20271;-73
2022/09/20 12:31:17;;;;;;;2.23;1.43;;;;;;;;;;5064387;28;20174;-73
2022/09/20 12:34:01;;;;;;;2.40;1.60;;;;;;;;;;5065038;28;20218;-73
2022/09/20 12:36:33;;;;;;;3.50;1.53;;;;;;;;;;5062414;28;20265;-73
2022/09/20 12:39:04;;;;;;;1.90;1.50;;;;;;;;;;5061727;28;20240;-73
2022/09/20 12:41:44;;;;;;;4.23;1.60;;;;;;;;;;5058164;28;20168;-73
2022/09/20 12:44:28;;;;;;;3.20;1.40;;;;;;;;;;5086845;28;20288;-73
2022/09/20 12:47:02;;;;;;;4.87;1.63;;;;;;;;;;5065889;28;20176;-73
2022/09/20 12:55:04;;;;;;;6.87;1.67;;;;;;;;;;5061017;28;20245;-73
2022/09/20 12:57:31;;;;;;;2.67;1.47;;;;;;;;;;5066427;28;20195;-73
2022/09/20 12:59:57;;;;;;;6.33;1.50;;;;;;;;;;5066663;28;20266;-73
2022/09/20 13:03:01;;;;;;;2.73;1.40;;;;;;;;;;5060525;28;20271;-73
2022/09/20 13:05:39;;;;;;;4.30;1.40;;;;;;;;;;5012268;28;20248;-73
2022/09/20 13:08:12;;;;;;;3.50;1.57;;;;;;;;;;4991924;28;20277;-73
2022/09/20 13:10:39;;;;;;;4.70;1.60;;;;;;;;;;5040253;28;20201;-73
2022/09/20 13:13:34;;;;;;;4.13;1.20;;;;;;;;;;5084461;28;20193;-73
2022/09/20 13:16:00;;;;;;;1.83;1.30;;;;;;;;;;5045040;28;20191;-73
2022/09/20 13:18:26;;;;;;;2.83;1.50;;;;;;;;;;5063472;28;21607;-73
2022/09/20 13:20:52;;;;;;;5.53;1.77;;;;;;;;;;5063962;28;20178;-73
2022/09/20 13:23:20;;;;;;;3.13;1.30;;;;;;;;;;5067256;28;20175;-73
2022/09/20 13:25:47;;;;;;;1.57;1.30;;;;;;;;;;5067612;28;20179;-73
2022/09/20 13:28:42;;;;;;;5.27;1.70;;;;;;;;;;5058788;28;20188;-73
2022/09/20 13:31:20;;;;;;;2.23;1.40;;;;;;;;;;5038896;28;20231;-74
2022/09/20 13:33:45;;;;;;;3.30;1.50;;;;;;;;;;5063516;28;20183;-73
2022/09/20 13:36:11;;;;;;;4.43;1.57;;;;;;;;;;5054854;28;20215;-73
2022/09/20 13:38:37;;;;;;;2.63;1.40;;;;;;;;;;5056961;28;20257;-74
2022/09/20 13:41:08;;;;;;;1.23;1.10;;;;;;;;;;5065340;28;20181;-75
2022/09/20 13:43:44;;;;;;;3.87;1.40;;;;;;;;;;5066667;28;20263;-75
2022/09/20 13:46:11;;;;;;;2.73;1.40;;;;;;;;;;5065745;28;20203;-74
2022/09/20 13:48:36;;;;;;;3.60;2.30;;;;;;;;;;5062514;28;20178;-75
2022/09/20 13:51:01;;;;;;;3.07;1.50;;;;;;;;;;5061895;28;20185;-74
2022/09/20 13:53:29;;;;;;;3.13;1.77;;;;;;;;;;5063360;28;20271;-75
2022/09/20 13:55:55;;;;;;;7.30;1.83;;;;;;;;;;5067168;28;20238;-75
2022/09/20 13:58:20;;;;;;;2.93;1.70;;;;;;;;;;5059123;28;20197;-75
2022/09/20 14:00:50;;;;;;;4.83;1.70;;;;;;;;;;5060144;28;20187;-75
2022/09/20 14:03:16;;;;;;;4.03;1.90;;;;;;;;;;5063706;28;20198;-75
2022/09/20 14:05:46;;;;;;;3.07;1.57;;;;;;;;;;5063043;28;20257;-74
2022/09/20 14:08:14;;;;;;;2.80;1.80;;;;;;;;;;5065292;28;20179;-75
2022/09/20 14:10:41;;;;;;;5.33;2.10;;;;;;;;;;5065842;28;20185;-75
2022/09/20 14:13:08;;;;;;;5.00;1.90;;;;;;;;;;5055519;28;20306;-75
2022/09/20 14:15:39;;;;;;;5.17;1.87;;;;;;;;;;5069372;28;20225;-74
2022/09/20 14:18:11;;;;;;;1.63;1.50;;;;;;;;;;5063783;28;20256;-75
2022/09/20 14:20:37;;;;;;;5.37;2.23;;;;;;;;;;5062579;28;20172;-74
2022/09/20 14:23:02;;;;;;;2.73;1.73;;;;;;;;;;5059720;28;20188;-75
2022/09/20 14:25:28;;;;;;;4.27;1.80;;;;;;;;;;5064300;28;20178;-75
2022/09/20 14:28:04;;;;;;;4.47;1.93;;;;;;;;;;5074211;28;20206;-75
2022/09/20 14:30:31;;;;;;;2.90;1.93;;;;;;;;;;5059363;28;20175;-75
2022/09/20 14:32:57;;;;;;;3.30;1.80;;;;;;;;;;5062769;28;20177;-75
2022/09/20 14:35:22;;;;;;;4.03;1.57;;;;;;;;;;5065569;28;20189;-75
2022/09/20 14:37:52;;;;;;;3.63;1.50;;;;;;;;;;5064284;28;20224;-75
2022/09/20 14:40:17;;;;;;;5.37;2.30;;;;;;;;;;5065849;28;20203;-75
2022/09/20 14:42:44;;;;;;;4.07;1.83;;;;;;;;;;5064083;28;20181;-75
2022/09/20 14:45:23;;;;;;;2.40;1.60;;;;;;;;;;5066053;28;20203;-75
2022/09/20 14:47:52;;;;;;;3.50;1.87;;;;;;;;;;5064540;28;20185;-75
2022/09/20 14:50:22;;;;;;;3.17;1.73;;;;;;;;;;5060533;28;20182;-75
2022/09/20 14:53:01;;;;;;;3.50;1.67;;;;;;;;;;5070417;28;20179;-75
2022/09/20 14:55:30;;;;;;;2.30;1.50;;;;;;;;;;5067676;28;20189;-75
2022/09/20 14:57:59;;;;;;;2.50;1.70;;;;;;;;;;5072236;28;20185;-75
2022/09/20 15:00:25;;;;;;;2.53;1.60;;;;;;;;;;5082381;28;20182;-75
2022/09/20 15:02:51;;;;;;;4.03;1.70;;;;;;;;;;5069588;28;20211;-75
2022/09/20 15:05:19;;;;;;;2.93;1.80;;;;;;;;;;5057744;28;20230;-75
2022/09/20 15:07:44;;;;;;;2.80;1.23;;;;;;;;;;5062006;28;20186;-73
2022/09/20 15:10:13;;;;;;;3.90;2.00;;;;;;;;;;5060772;28;20272;-73
2022/09/20 15:12:39;;;;;;;4.33;1.57;;;;;;;;;;5059080;28;20191;-73
2022/09/20 15:15:04;;;;;;;1.83;1.70;;;;;;;;;;5060604;28;20182;-73
2022/09/20 15:17:29;;;;;;;2.67;1.97;;;;;;;;;;5062725;28;20209;-73
2022/09/20 15:19:54;;;;;;;2.83;1.80;;;;;;;;;;5062835;28;20209;-73
2022/09/20 15:22:20;;;;;;;6.90;1.90;;;;;;;;;;5062594;28;20179;-73
2022/09/20 15:24:45;;;;;;;5.17;1.97;;;;;;;;;;5062953;28;20192;-73